createdAt,value
2022-08-30T00:00:49.582Z,9.719140
2022-08-30T00:01:49.538Z,9.719131
2022-08-30T00:02:49.630Z,9.719043
2022-08-30T00:03:49.617Z,9.719136
2022-08-30T00:04:49.502Z,9.719163
2022-08-30T00:05:49.503Z,9.719297
2022-08-30T00:06:49.531Z,9.719347
2022-08-30T00:07:49.495Z,9.719172
2022-08-30T00:08:49.505Z,9.719258
2022-08-30T00:09:49.465Z,9.719373
2022-08-30T00:10:49.477Z,9.719437
2022-08-30T00:11:49.465Z,9.719317
2022-08-30T00:12:49.441Z,9.719256
2022-08-30T00:13:49.420Z,9.719241
2022-08-30T00:14:49.422Z,9.719337
2022-08-30T00:15:49.471Z,9.719156
2022-08-30T00:16:49.422Z,9.719257
2022-08-30T00:17:49.427Z,9.719371
2022-08-30T00:18:49.375Z,9.719187
2022-08-30T00:19:49.378Z,9.718995
2022-08-30T00:20:49.346Z,9.719033
2022-08-30T00:21:49.360Z,9.719123
2022-08-30T00:22:49.332Z,9.719151
2022-08-30T00:23:49.352Z,9.719192
2022-08-30T00:24:49.326Z,9.719135
2022-08-30T00:25:49.314Z,9.719014
2022-08-30T00:26:49.301Z,9.719007
2022-08-30T00:27:49.326Z,9.719143
2022-08-30T00:28:49.319Z,9.719119
2022-08-30T00:29:49.290Z,9.719268
2022-08-30T00:30:49.314Z,9.719264
2022-08-30T00:31:49.255Z,9.719180
2022-08-30T00:32:49.240Z,9.719133
2022-08-30T00:33:49.255Z,9.719137
2022-08-30T00:34:49.214Z,9.719151
2022-08-30T00:35:49.235Z,9.719206
2022-08-30T00:36:49.217Z,9.719052
2022-08-30T00:37:49.179Z,9.719065
2022-08-30T00:38:49.173Z,9.719180
2022-08-30T00:39:49.161Z,9.719362
2022-08-30T00:40:49.170Z,9.719363
2022-08-30T00:41:49.165Z,9.719143
2022-08-30T00:42:50.625Z,9.719243
2022-08-30T00:43:49.137Z,9.719209
2022-08-30T00:44:49.131Z,9.719178
2022-08-30T00:45:49.176Z,9.719217
2022-08-30T00:46:49.123Z,9.719255
2022-08-30T00:47:49.108Z,9.719244
2022-08-30T00:48:49.063Z,9.719244
2022-08-30T00:49:49.076Z,9.719221
2022-08-30T00:50:49.062Z,9.719220
2022-08-30T00:51:49.092Z,9.719223
2022-08-30T00:52:49.028Z,9.719177
2022-08-30T00:53:49.046Z,9.719234
2022-08-30T00:54:49.023Z,9.719296
2022-08-30T00:55:49.033Z,9.719400
2022-08-30T00:56:49.120Z,9.719377
2022-08-30T00:57:49.015Z,9.719235
2022-08-30T00:58:48.987Z,9.719104
2022-08-30T00:59:48.971Z,9.719065
2022-08-30T01:00:48.973Z,9.719137
2022-08-30T01:01:49.019Z,9.719033
2022-08-30T01:02:48.954Z,9.719073
2022-08-30T01:03:48.923Z,9.719100
2022-08-30T01:04:48.919Z,9.719094
2022-08-30T01:05:48.903Z,9.719201
2022-08-30T01:06:49.920Z,9.719148
2022-08-30T01:07:48.890Z,9.719143
2022-08-30T01:08:48.880Z,9.719151
2022-08-30T01:09:48.890Z,9.719137
2022-08-30T01:10:48.855Z,9.719172
2022-08-30T01:11:48.903Z,9.719065
2022-08-30T01:12:48.831Z,9.719081
2022-08-30T01:13:48.848Z,9.719026
2022-08-30T01:14:48.832Z,9.719050
2022-08-30T01:15:48.834Z,9.719057
2022-08-30T01:16:48.813Z,9.719090
2022-08-30T01:17:48.875Z,9.719052
2022-08-30T01:18:48.827Z,9.719092
2022-08-30T01:19:48.800Z,9.719066
2022-08-30T01:20:48.766Z,9.719123
2022-08-30T01:21:48.767Z,9.719114
2022-08-30T01:22:48.738Z,9.719152
2022-08-30T01:23:48.759Z,9.719098
2022-08-30T01:24:48.716Z,9.719024
2022-08-30T01:25:48.736Z,9.719011
2022-08-30T01:26:48.691Z,9.718986
2022-08-30T01:27:48.715Z,9.719020
2022-08-30T01:28:48.685Z,9.718962
2022-08-30T01:29:48.663Z,9.718970
2022-08-30T01:30:48.744Z,9.719016
2022-08-30T01:31:48.698Z,9.719062
2022-08-30T01:32:48.635Z,9.719048
2022-08-30T01:33:48.618Z,9.719013
2022-08-30T01:34:48.608Z,9.719152
2022-08-30T01:35:48.628Z,9.719070
2022-08-30T01:36:48.596Z,9.718985
2022-08-30T01:37:48.617Z,9.718939
2022-08-30T01:38:48.582Z,9.718964
2022-08-30T01:39:48.577Z,9.719056
2022-08-30T01:40:48.564Z,9.719053
2022-08-30T01:41:48.556Z,9.719151
2022-08-30T01:42:48.552Z,9.719159
2022-08-30T01:43:48.528Z,9.719044
2022-08-30T01:44:48.526Z,9.719086
2022-08-30T01:45:48.542Z,9.719055
2022-08-30T01:46:48.499Z,9.719143
2022-08-30T01:47:48.501Z,9.719210
2022-08-30T01:48:53.107Z,9.719225
2022-08-30T01:49:49.486Z,9.719134
2022-08-30T01:50:48.459Z,9.719181
2022-08-30T01:51:48.447Z,9.719158
2022-08-30T01:52:48.445Z,9.719223
2022-08-30T01:53:48.446Z,9.719229
2022-08-30T01:54:48.436Z,9.719172
2022-08-30T01:55:48.412Z,9.719073
2022-08-30T01:56:48.407Z,9.718856
2022-08-30T01:57:48.380Z,9.718897
2022-08-30T01:58:48.371Z,9.718751
2022-08-30T01:59:48.383Z,9.719013
2022-08-30T02:00:48.394Z,9.719254
2022-08-30T02:01:48.412Z,9.718998
2022-08-30T02:02:48.339Z,9.718947
2022-08-30T02:03:48.394Z,9.718863
2022-08-30T02:04:48.307Z,9.718859
2022-08-30T02:05:48.321Z,9.718888
2022-08-30T02:06:48.295Z,9.718987
2022-08-30T02:07:48.289Z,9.719054
2022-08-30T02:08:48.279Z,9.718985
2022-08-30T02:09:48.253Z,9.718950
2022-08-30T02:10:48.254Z,9.718986
2022-08-30T02:11:48.254Z,9.719044
2022-08-30T02:12:48.242Z,9.719014
2022-08-30T02:13:48.216Z,9.718961
2022-08-30T02:14:48.223Z,9.718959
2022-08-30T02:15:48.198Z,9.719037
2022-08-30T02:16:48.287Z,9.719059
2022-08-30T02:17:48.170Z,9.718976
2022-08-30T02:18:48.207Z,9.719005
2022-08-30T02:19:48.190Z,9.719053
2022-08-30T02:20:48.145Z,9.719011
2022-08-30T02:21:48.198Z,9.719030
2022-08-30T02:22:49.507Z,9.718988
2022-08-30T02:23:48.141Z,9.719035
2022-08-30T02:24:48.113Z,9.719047
2022-08-30T02:25:48.098Z,9.719043
2022-08-30T02:26:48.074Z,9.719028
2022-08-30T02:27:49.081Z,9.718980
2022-08-30T02:28:50.067Z,9.718951
2022-08-30T02:29:48.074Z,9.719050
2022-08-30T02:30:48.112Z,9.719082
2022-08-30T02:31:48.064Z,9.719093
2022-08-30T02:32:48.022Z,9.718985
2022-08-30T02:33:48.088Z,9.719062
2022-08-30T02:34:48.010Z,9.719100
2022-08-30T02:35:48.005Z,9.719102
2022-08-30T02:36:48.003Z,9.719153
2022-08-30T02:37:47.987Z,9.719123
2022-08-30T02:38:47.989Z,9.719060
2022-08-30T02:39:47.966Z,9.719078
2022-08-30T02:40:47.946Z,9.719044
2022-08-30T02:41:47.956Z,9.719082
2022-08-30T02:42:47.938Z,9.719060
2022-08-30T02:43:47.930Z,9.719175
2022-08-30T02:44:47.911Z,9.719075
2022-08-30T02:45:47.937Z,9.719037
2022-08-30T02:46:47.955Z,9.719028
2022-08-30T02:47:48.887Z,9.719120
2022-08-30T02:48:47.895Z,9.718975
2022-08-30T02:49:47.858Z,9.719104
2022-08-30T02:50:47.842Z,9.719056
2022-08-30T02:51:47.850Z,9.719094
2022-08-30T02:52:48.375Z,9.719186
2022-08-30T02:53:47.845Z,9.719145
2022-08-30T02:54:47.822Z,9.719167
2022-08-30T02:55:47.812Z,9.719131
2022-08-30T02:56:47.959Z,9.719135
2022-08-30T02:57:47.781Z,9.719189
2022-08-30T02:58:47.781Z,9.719197
2022-08-30T02:59:47.751Z,9.719298
2022-08-30T03:00:47.830Z,9.719181
2022-08-30T03:01:47.760Z,9.719185
2022-08-30T03:02:47.716Z,9.719271
2022-08-30T03:03:47.731Z,9.719077
2022-08-30T03:04:47.707Z,9.719051
2022-08-30T03:05:47.784Z,9.719233
2022-08-30T03:06:47.688Z,9.719220
2022-08-30T03:07:47.695Z,9.719103
2022-08-30T03:08:47.674Z,9.719115
2022-08-30T03:09:47.646Z,9.719300
2022-08-30T03:10:47.657Z,9.719256
2022-08-30T03:11:47.644Z,9.719173
2022-08-30T03:12:47.623Z,9.719158
2022-08-30T03:13:47.600Z,9.719169
2022-08-30T03:14:47.597Z,9.719318
2022-08-30T03:15:47.602Z,9.719393
2022-08-30T03:16:47.582Z,9.719281
2022-08-30T03:17:47.579Z,9.719175
2022-08-30T03:18:47.569Z,9.719076
2022-08-30T03:19:47.554Z,9.719023
2022-08-30T03:20:54.177Z,9.718905
2022-08-30T03:21:48.543Z,9.718966
2022-08-30T03:22:47.518Z,9.719128
2022-08-30T03:23:47.508Z,9.719076
2022-08-30T03:24:47.490Z,9.719080
2022-08-30T03:25:47.473Z,9.719089
2022-08-30T03:26:48.476Z,9.719093
2022-08-30T03:27:47.510Z,9.719139
2022-08-30T03:28:47.456Z,9.719143
2022-08-30T03:29:47.435Z,9.719095
2022-08-30T03:30:47.443Z,9.719059
2022-08-30T03:31:52.866Z,9.719114
2022-08-30T03:32:48.441Z,9.719131
2022-08-30T03:33:47.391Z,9.719112
2022-08-30T03:34:47.389Z,9.719156
2022-08-30T03:35:47.386Z,9.719136
2022-08-30T03:36:47.366Z,9.719198
2022-08-30T03:37:47.384Z,9.719207
2022-08-30T03:38:47.370Z,9.719024
2022-08-30T03:39:47.327Z,9.719067
2022-08-30T03:40:47.342Z,9.719183
2022-08-30T03:41:47.338Z,9.719182
2022-08-30T03:42:47.306Z,9.719164
2022-08-30T03:43:47.297Z,9.719146
2022-08-30T03:44:47.282Z,9.719151
2022-08-30T03:45:47.318Z,9.719209
2022-08-30T03:46:47.274Z,9.719209
2022-08-30T03:47:47.260Z,9.719224
2022-08-30T03:48:47.261Z,9.719234
2022-08-30T03:49:47.244Z,9.719214
2022-08-30T03:50:47.218Z,9.719200
2022-08-30T03:51:47.260Z,9.719298
2022-08-30T03:52:47.213Z,9.719223
2022-08-30T03:53:47.207Z,9.719163
2022-08-30T03:54:47.185Z,9.719212
2022-08-30T03:55:47.182Z,9.719187
2022-08-30T03:56:47.166Z,9.719181
2022-08-30T03:57:47.171Z,9.719153
2022-08-30T03:58:47.156Z,9.719171
2022-08-30T03:59:47.153Z,9.719202
2022-08-30T04:00:47.147Z,9.719214
2022-08-30T04:01:47.137Z,9.719178
2022-08-30T04:02:47.133Z,9.719119
2022-08-30T04:03:47.100Z,9.719075
2022-08-30T04:04:47.106Z,9.719087
2022-08-30T04:05:47.071Z,9.719125
2022-08-30T04:06:47.070Z,9.719274
2022-08-30T04:07:47.051Z,9.719155
2022-08-30T04:08:47.091Z,9.719170
2022-08-30T04:09:47.081Z,9.719143
2022-08-30T04:10:47.031Z,9.719074
2022-08-30T04:11:47.060Z,9.719096
2022-08-30T04:12:49.724Z,9.719125
2022-08-30T04:13:48.138Z,9.719162
2022-08-30T04:14:46.983Z,9.719226
2022-08-30T04:15:46.980Z,9.719308
2022-08-30T04:16:47.096Z,9.719266
2022-08-30T04:17:46.945Z,9.719210
2022-08-30T04:18:46.947Z,9.719201
2022-08-30T04:19:46.956Z,9.719257
2022-08-30T04:20:46.927Z,9.719264
2022-08-30T04:21:47.918Z,9.719361
2022-08-30T04:22:46.957Z,9.719193
2022-08-30T04:23:46.925Z,9.719210
2022-08-30T04:24:46.878Z,9.719179
2022-08-30T04:25:46.897Z,9.719181
2022-08-30T04:26:46.873Z,9.719155
2022-08-30T04:27:46.847Z,9.719163
2022-08-30T04:28:46.841Z,9.719284
2022-08-30T04:29:46.841Z,9.719252
2022-08-30T04:30:46.851Z,9.719296
2022-08-30T04:31:46.908Z,9.719393
2022-08-30T04:32:46.809Z,9.719110
2022-08-30T04:33:46.792Z,9.719154
2022-08-30T04:34:46.809Z,9.719134
2022-08-30T04:35:46.804Z,9.719170
2022-08-30T04:36:48.387Z,9.719040
2022-08-30T04:37:46.770Z,9.719020
2022-08-30T04:38:46.765Z,9.719003
2022-08-30T04:39:46.779Z,9.718971
2022-08-30T04:40:46.773Z,9.719044
2022-08-30T04:41:46.711Z,9.718842
2022-08-30T04:42:46.764Z,9.718784
2022-08-30T04:43:46.725Z,9.719092
2022-08-30T04:44:46.701Z,9.719109
2022-08-30T04:45:46.736Z,9.719106
2022-08-30T04:46:46.686Z,9.719133
2022-08-30T04:47:46.678Z,9.719125
2022-08-30T04:48:46.681Z,9.719113
2022-08-30T04:49:46.657Z,9.719018
2022-08-30T04:50:46.659Z,9.719100
2022-08-30T04:51:46.619Z,9.719172
2022-08-30T04:52:46.624Z,9.719235
2022-08-30T04:53:46.679Z,9.719245
2022-08-30T04:54:46.602Z,9.719225
2022-08-30T04:55:46.581Z,9.719225
2022-08-30T04:56:46.571Z,9.719152
2022-08-30T04:57:46.565Z,9.719198
2022-08-30T04:58:46.573Z,9.719204
2022-08-30T04:59:46.532Z,9.719217
2022-08-30T05:00:46.589Z,9.719215
2022-08-30T05:01:46.674Z,9.719245
2022-08-30T05:02:46.588Z,9.719124
2022-08-30T05:03:46.507Z,9.719178
2022-08-30T05:04:46.557Z,9.719122
2022-08-30T05:05:46.490Z,9.719159
2022-08-30T05:06:46.468Z,9.719090
2022-08-30T05:07:46.459Z,9.719213
2022-08-30T05:08:46.863Z,9.719234
2022-08-30T05:09:46.471Z,9.719248
2022-08-30T05:10:46.442Z,9.719263
2022-08-30T05:11:46.422Z,9.719298
2022-08-30T05:12:46.405Z,9.719306
2022-08-30T05:13:46.415Z,9.719320
2022-08-30T05:14:46.411Z,9.719298
2022-08-30T05:15:46.381Z,9.719246
2022-08-30T05:16:46.490Z,9.719184
2022-08-30T05:17:46.371Z,9.719204
2022-08-30T05:18:46.362Z,9.719098
2022-08-30T05:19:46.346Z,9.719000
2022-08-30T05:20:46.328Z,9.719176
2022-08-30T05:21:46.315Z,9.719166
2022-08-30T05:22:46.331Z,9.719248
2022-08-30T05:23:46.296Z,9.719297
2022-08-30T05:24:46.305Z,9.719221
2022-08-30T05:25:46.273Z,9.719270
2022-08-30T05:27:46.279Z,9.719215
2022-08-30T05:28:46.243Z,9.719500
2022-08-30T05:29:46.241Z,9.719534
2022-08-30T05:30:46.230Z,9.719679
2022-08-30T05:31:46.281Z,9.719865
2022-08-30T05:32:46.212Z,9.719839
2022-08-30T05:33:46.212Z,9.719595
2022-08-30T05:34:46.215Z,9.719631
2022-08-30T05:35:46.181Z,9.719572
2022-08-30T05:36:46.164Z,9.719532
2022-08-30T05:37:46.164Z,9.719653
2022-08-30T05:38:46.141Z,9.719703
2022-08-30T05:39:51.808Z,9.719808
2022-08-30T05:40:46.279Z,9.719563
2022-08-30T05:41:46.118Z,9.719460
2022-08-30T05:42:46.110Z,9.719430
2022-08-30T05:43:46.103Z,9.719397
2022-08-30T05:44:46.092Z,9.719501
2022-08-30T05:45:46.096Z,9.719496
2022-08-30T05:46:46.069Z,9.719496
2022-08-30T05:47:46.077Z,9.719454
2022-08-30T05:48:46.069Z,9.719364
2022-08-30T05:49:46.060Z,9.719370
2022-08-30T05:50:46.032Z,9.719344
2022-08-30T05:51:46.048Z,9.719371
2022-08-30T05:52:46.004Z,9.719367
2022-08-30T05:53:46.009Z,9.719389
2022-08-30T05:54:45.991Z,9.719346
2022-08-30T05:55:45.988Z,9.719432
2022-08-30T05:56:45.986Z,9.719398
2022-08-30T05:57:45.963Z,9.719353
2022-08-30T05:58:45.960Z,9.719390
2022-08-30T05:59:45.963Z,9.719352
2022-08-30T06:00:45.932Z,9.719300
2022-08-30T06:01:46.011Z,9.719337
2022-08-30T06:02:45.969Z,9.719364
2022-08-30T06:03:45.911Z,9.719350
2022-08-30T06:04:45.897Z,9.719364
2022-08-30T06:06:45.914Z,9.719280
2022-08-30T06:07:45.861Z,9.719337
2022-08-30T06:08:45.835Z,9.719380
2022-08-30T06:09:45.852Z,9.719391
2022-08-30T06:10:45.848Z,9.719364
2022-08-30T06:11:45.827Z,9.719384
2022-08-30T06:12:45.802Z,9.719317
2022-08-30T06:13:45.812Z,9.719312
2022-08-30T06:14:45.810Z,9.719300
2022-08-30T06:15:45.892Z,9.719347
2022-08-30T06:16:45.976Z,9.719287
2022-08-30T06:17:45.768Z,9.719301
2022-08-30T06:18:45.729Z,9.719266
2022-08-30T06:19:45.726Z,9.719280
2022-08-30T06:20:46.713Z,9.719296
2022-08-30T06:21:45.734Z,9.719279
2022-08-30T06:22:45.704Z,9.719291
2022-08-30T06:23:45.693Z,9.719191
2022-08-30T06:24:58.759Z,9.719204
2022-08-30T06:25:47.671Z,9.719225
2022-08-30T06:26:45.655Z,9.719230
2022-08-30T06:27:45.669Z,9.719139
2022-08-30T06:28:45.631Z,9.719082
2022-08-30T06:29:45.635Z,9.719093
2022-08-30T06:30:45.619Z,9.719023
2022-08-30T06:31:45.642Z,9.719107
2022-08-30T06:32:45.613Z,9.719187
2022-08-30T06:33:45.586Z,9.719199
2022-08-30T06:34:45.578Z,9.719156
2022-08-30T06:35:58.091Z,9.719101
2022-08-30T06:36:46.561Z,9.719168
2022-08-30T06:37:45.568Z,9.719257
2022-08-30T06:38:45.535Z,9.719173
2022-08-30T06:39:45.532Z,9.719106
2022-08-30T06:40:45.598Z,9.719193
2022-08-30T06:41:45.513Z,9.719345
2022-08-30T06:42:45.516Z,9.719240
2022-08-30T06:43:48.891Z,9.719169
2022-08-30T06:44:46.502Z,9.719110
2022-08-30T06:45:45.486Z,9.719175
2022-08-30T06:46:45.527Z,9.719244
2022-08-30T06:47:45.461Z,9.719232
2022-08-30T06:48:48.174Z,9.719212
2022-08-30T06:49:45.445Z,9.719215
2022-08-30T06:50:45.451Z,9.719261
2022-08-30T06:51:45.411Z,9.719157
2022-08-30T06:52:45.403Z,9.719311
2022-08-30T06:53:45.386Z,9.719336
2022-08-30T06:54:46.386Z,9.719213
2022-08-30T06:55:45.387Z,9.719190
2022-08-30T06:56:58.504Z,9.719240
2022-08-30T06:57:47.365Z,9.719268
2022-08-30T06:58:45.373Z,9.719254
2022-08-30T06:59:45.361Z,9.719216
2022-08-30T07:00:45.323Z,9.719237
2022-08-30T07:01:45.352Z,9.719293
2022-08-30T07:02:45.377Z,9.719213
2022-08-30T07:03:45.325Z,9.719172
2022-08-30T07:04:45.289Z,9.719333
2022-08-30T07:05:45.278Z,9.719175
2022-08-30T07:06:45.269Z,9.719080
2022-08-30T07:07:45.269Z,9.719097
2022-08-30T07:08:45.253Z,9.719131
2022-08-30T07:09:45.263Z,9.719114
2022-08-30T07:10:45.228Z,9.719192
2022-08-30T07:11:45.212Z,9.719204
2022-08-30T07:12:45.196Z,9.719191
2022-08-30T07:13:45.207Z,9.719236
2022-08-30T07:14:45.208Z,9.719182
2022-08-30T07:15:45.200Z,9.719167
2022-08-30T07:16:45.165Z,9.719151
2022-08-30T07:17:45.172Z,9.719081
2022-08-30T07:18:45.155Z,9.719143
2022-08-30T07:19:45.139Z,9.719095
2022-08-30T07:20:45.131Z,9.719049
2022-08-30T07:21:45.138Z,9.719078
2022-08-30T07:22:45.121Z,9.719114
2022-08-30T07:23:45.108Z,9.719056
2022-08-30T07:24:45.084Z,9.719093
2022-08-30T07:25:45.070Z,9.719161
2022-08-30T07:26:45.086Z,9.719208
2022-08-30T07:27:45.060Z,9.719098
2022-08-30T07:28:45.233Z,9.719023
2022-08-30T07:29:45.060Z,9.718945
2022-08-30T07:30:45.025Z,9.718822
2022-08-30T07:31:45.012Z,9.719058
2022-08-30T07:32:45.012Z,9.719105
2022-08-30T07:33:45.019Z,9.719120
2022-08-30T07:34:44.990Z,9.719115
2022-08-30T07:35:44.984Z,9.719133
2022-08-30T07:36:44.970Z,9.718792
2022-08-30T07:37:44.967Z,9.718708
2022-08-30T07:38:44.943Z,9.718626
2022-08-30T07:39:47.736Z,9.718806
2022-08-30T07:40:45.973Z,9.718811
2022-08-30T07:41:44.921Z,9.718808
2022-08-30T07:42:44.907Z,9.718863
2022-08-30T07:43:44.894Z,9.719245
2022-08-30T07:44:44.884Z,9.719263
2022-08-30T07:45:44.901Z,9.719133
2022-08-30T07:46:44.966Z,9.719090
2022-08-30T07:47:44.855Z,9.719194
2022-08-30T07:48:44.852Z,9.719174
2022-08-30T07:49:44.831Z,9.719144
2022-08-30T07:50:44.827Z,9.719094
2022-08-30T07:51:44.832Z,9.719173
2022-08-30T07:52:44.828Z,9.719220
2022-08-30T07:53:44.796Z,9.719250
2022-08-30T07:54:44.803Z,9.719050
2022-08-30T07:55:44.782Z,9.719033
2022-08-30T07:56:44.784Z,9.719190
2022-08-30T07:57:44.783Z,9.719195
2022-08-30T07:58:44.750Z,9.719332
2022-08-30T07:59:44.747Z,9.719219
2022-08-30T08:00:44.726Z,9.719049
2022-08-30T08:01:44.797Z,9.719029
2022-08-30T08:02:44.809Z,9.719127
2022-08-30T08:03:44.711Z,9.719008
2022-08-30T08:04:44.705Z,9.719083
2022-08-30T08:05:44.687Z,9.719018
2022-08-30T08:06:44.678Z,9.718755
2022-08-30T08:07:44.666Z,9.719192
2022-08-30T08:08:44.672Z,9.719165
2022-08-30T08:09:44.647Z,9.718832
2022-08-30T08:10:44.628Z,9.718936
2022-08-30T08:11:44.643Z,9.719379
2022-08-30T08:12:44.611Z,9.719100
2022-08-30T08:14:00.620Z,9.718994
2022-08-30T08:14:45.604Z,9.719002
2022-08-30T08:15:44.633Z,9.719147
2022-08-30T08:16:44.581Z,9.719234
2022-08-30T08:17:44.574Z,9.719216
2022-08-30T08:18:44.570Z,9.719205
2022-08-30T08:19:44.563Z,9.719223
2022-08-30T08:20:44.559Z,9.719105
2022-08-30T08:21:44.541Z,9.719129
2022-08-30T08:22:44.529Z,9.718978
2022-08-30T08:23:44.546Z,9.719001
2022-08-30T08:24:44.522Z,9.719182
2022-08-30T08:25:44.510Z,9.719156
2022-08-30T08:26:45.426Z,9.719221
2022-08-30T08:27:44.471Z,9.719259
2022-08-30T08:28:44.471Z,9.719251
2022-08-30T08:29:44.504Z,9.719292
2022-08-30T08:30:48.129Z,9.719177
2022-08-30T08:31:45.471Z,9.719271
2022-08-30T08:32:44.428Z,9.719316
2022-08-30T08:33:44.418Z,9.719162
2022-08-30T08:34:44.426Z,9.719371
2022-08-30T08:35:44.529Z,9.719373
2022-08-30T08:36:44.409Z,9.719230
2022-08-30T08:37:44.395Z,9.719084
2022-08-30T08:38:44.389Z,9.719206
2022-08-30T08:39:44.375Z,9.719147
2022-08-30T08:40:44.390Z,9.719247
2022-08-30T08:41:44.402Z,9.719355
2022-08-30T08:42:44.342Z,9.719308
2022-08-30T08:43:44.325Z,9.719274
2022-08-30T08:44:44.387Z,9.719224
2022-08-30T08:45:44.318Z,9.719140
2022-08-30T08:46:45.496Z,9.719250
2022-08-30T08:47:44.319Z,9.719087
2022-08-30T08:48:58.980Z,9.719022
2022-08-30T08:49:45.286Z,9.719115
2022-08-30T08:50:44.275Z,9.719226
2022-08-30T08:51:44.285Z,9.719153
2022-08-30T08:52:44.246Z,9.719126
2022-08-30T08:53:46.583Z,9.719219
2022-08-30T08:54:45.237Z,9.719146
2022-08-30T08:55:44.275Z,9.719202
2022-08-30T08:56:44.226Z,9.719190
2022-08-30T08:57:44.240Z,9.719218
2022-08-30T08:58:44.206Z,9.719271
2022-08-30T08:59:44.195Z,9.719284
2022-08-30T09:00:44.173Z,9.719312
2022-08-30T09:01:44.211Z,9.719184
2022-08-30T09:02:44.179Z,9.719213
2022-08-30T09:03:44.147Z,9.719210
2022-08-30T09:04:44.190Z,9.719117
2022-08-30T09:05:44.137Z,9.719145
2022-08-30T09:06:45.388Z,9.719273
2022-08-30T09:07:44.140Z,9.719296
2022-08-30T09:08:44.101Z,9.719373
2022-08-30T09:09:44.090Z,9.719389
2022-08-30T09:10:51.378Z,9.719397
2022-08-30T09:11:46.075Z,9.719383
2022-08-30T09:12:44.073Z,9.719344
2022-08-30T09:13:44.081Z,9.719184
2022-08-30T09:14:45.996Z,9.719140
2022-08-30T09:15:44.077Z,9.719181
2022-08-30T09:16:44.019Z,9.719190
2022-08-30T09:17:44.015Z,9.719158
2022-08-30T09:18:45.466Z,9.719156
2022-08-30T09:19:44.061Z,9.719135
2022-08-30T09:20:43.995Z,9.719130
2022-08-30T09:21:43.993Z,9.719193
2022-08-30T09:22:46.537Z,9.719252
2022-08-30T09:23:43.978Z,9.719305
2022-08-30T09:24:43.950Z,9.719306
2022-08-30T09:25:43.941Z,9.719232
2022-08-30T09:26:43.923Z,9.719181
2022-08-30T09:27:43.927Z,9.719167
2022-08-30T09:28:43.937Z,9.719192
2022-08-30T09:29:43.902Z,9.719191
2022-08-30T09:30:43.930Z,9.719193
2022-08-30T09:31:43.890Z,9.719238
2022-08-30T09:32:43.875Z,9.719300
2022-08-30T09:33:43.863Z,9.719280
2022-08-30T09:34:43.878Z,9.719277
2022-08-30T09:35:43.837Z,9.719324
2022-08-30T09:36:43.853Z,9.719306
2022-08-30T09:37:43.841Z,9.719254
2022-08-30T09:38:43.818Z,9.719196
2022-08-30T09:39:43.824Z,9.719287
2022-08-30T09:40:43.850Z,9.719380
2022-08-30T09:41:43.795Z,9.719384
2022-08-30T09:42:43.771Z,9.719202
2022-08-30T09:43:43.791Z,9.719308
2022-08-30T09:44:43.756Z,9.719258
2022-08-30T09:45:43.806Z,9.719299
2022-08-30T09:46:43.730Z,9.719351
2022-08-30T09:47:43.737Z,9.719349
2022-08-30T09:48:44.726Z,9.719313
2022-08-30T09:49:43.767Z,9.719335
2022-08-30T09:50:43.698Z,9.719410
2022-08-30T09:51:43.694Z,9.719178
2022-08-30T09:52:43.676Z,9.719419
2022-08-30T09:53:55.699Z,9.719356
2022-08-30T09:54:44.679Z,9.719452
2022-08-30T09:55:43.663Z,9.719138
2022-08-30T09:56:43.647Z,9.719429
2022-08-30T09:57:43.641Z,9.719472
2022-08-30T09:58:43.646Z,9.720211
2022-08-30T09:59:43.617Z,9.719875
2022-08-30T10:00:43.613Z,9.719410
2022-08-30T10:01:43.644Z,9.719591
2022-08-30T10:02:43.625Z,9.719593
2022-08-30T10:03:43.584Z,9.719556
2022-08-30T10:04:43.566Z,9.719644
2022-08-30T10:05:43.557Z,9.719494
2022-08-30T10:06:43.563Z,9.719897
2022-08-30T10:07:43.567Z,9.720004
2022-08-30T10:08:43.789Z,9.720193
2022-08-30T10:09:43.531Z,9.719902
2022-08-30T10:10:45.890Z,9.719901
2022-08-30T10:11:44.535Z,9.720146
2022-08-30T10:12:43.504Z,9.720100
2022-08-30T10:13:43.521Z,9.719704
2022-08-30T10:14:43.506Z,9.719426
2022-08-30T10:15:43.467Z,9.719506
2022-08-30T10:16:43.561Z,9.719327
2022-08-30T10:17:43.513Z,9.719636
2022-08-30T10:18:43.523Z,9.719280
2022-08-30T10:19:43.465Z,9.719601
2022-08-30T10:20:43.453Z,9.719624
2022-08-30T10:21:43.423Z,9.719522
2022-08-30T10:22:43.393Z,9.719747
2022-08-30T10:23:43.394Z,9.719251
2022-08-30T10:24:43.933Z,9.719262
2022-08-30T10:25:43.406Z,9.719231
2022-08-30T10:26:43.378Z,9.719244
2022-08-30T10:27:43.357Z,9.719201
2022-08-30T10:28:43.350Z,9.719193
2022-08-30T10:29:43.497Z,9.719235
2022-08-30T10:30:43.326Z,9.719159
2022-08-30T10:31:43.327Z,9.719172
2022-08-30T10:32:43.304Z,9.719235
2022-08-30T10:33:43.309Z,9.719241
2022-08-30T10:34:43.295Z,9.719167
2022-08-30T10:35:43.277Z,9.719090
2022-08-30T10:36:43.283Z,9.719144
2022-08-30T10:37:43.261Z,9.719125
2022-08-30T10:38:43.258Z,9.719164
2022-08-30T10:39:43.243Z,9.719127
2022-08-30T10:40:43.288Z,9.719182
2022-08-30T10:41:43.239Z,9.719131
2022-08-30T10:42:43.209Z,9.719107
2022-08-30T10:43:43.194Z,9.719242
2022-08-30T10:44:43.183Z,9.719162
2022-08-30T10:45:43.194Z,9.719177
2022-08-30T10:46:43.163Z,9.719276
2022-08-30T10:47:43.178Z,9.719168
2022-08-30T10:48:44.509Z,9.719215
2022-08-30T10:49:43.148Z,9.719223
2022-08-30T10:50:43.123Z,9.719286
2022-08-30T10:51:43.120Z,9.719351
2022-08-30T10:52:43.109Z,9.719170
2022-08-30T10:53:43.114Z,9.719270
2022-08-30T10:54:43.107Z,9.719173
2022-08-30T10:55:45.765Z,9.719126
2022-08-30T10:56:44.084Z,9.719235
2022-08-30T10:58:44.132Z,9.719321
2022-08-30T10:59:43.063Z,9.719211
2022-08-30T11:00:43.085Z,9.719189
2022-08-30T11:01:46.613Z,9.719337
2022-08-30T11:02:43.016Z,9.719392
2022-08-30T11:03:42.999Z,9.719390
2022-08-30T11:04:45.514Z,9.719239
2022-08-30T11:05:42.998Z,9.719395
2022-08-30T11:06:42.974Z,9.719440
2022-08-30T11:07:42.966Z,9.719474
2022-08-30T11:08:42.968Z,9.719234
2022-08-30T11:09:42.952Z,9.719299
2022-08-30T11:10:42.962Z,9.719348
2022-08-30T11:11:43.925Z,9.719491
2022-08-30T11:12:42.922Z,9.719517
2022-08-30T11:13:42.907Z,9.719471
2022-08-30T11:14:43.267Z,9.719304
2022-08-30T11:15:43.902Z,9.719051
2022-08-30T11:16:43.302Z,9.719336
2022-08-30T11:17:42.905Z,9.719153
2022-08-30T11:18:43.356Z,9.719217
2022-08-30T11:19:42.855Z,9.719271
2022-08-30T11:20:42.848Z,9.719436
2022-08-30T11:21:42.844Z,9.719315
2022-08-30T11:22:42.853Z,9.719277
2022-08-30T11:23:42.812Z,9.719242
2022-08-30T11:24:42.803Z,9.719325
2022-08-30T11:25:42.790Z,9.719299
2022-08-30T11:26:42.781Z,9.719465
2022-08-30T11:27:42.803Z,9.719244
2022-08-30T11:28:42.763Z,9.719259
2022-08-30T11:29:42.753Z,9.719226
2022-08-30T11:30:42.757Z,9.719222
2022-08-30T11:31:42.731Z,9.719252
2022-08-30T11:32:42.715Z,9.719333
2022-08-30T11:33:42.722Z,9.719353
2022-08-30T11:34:42.710Z,9.719239
2022-08-30T11:35:47.349Z,9.719243
2022-08-30T11:36:46.203Z,9.719191
2022-08-30T11:37:42.661Z,9.719183
2022-08-30T11:38:42.669Z,9.719264
2022-08-30T11:39:42.655Z,9.719252
2022-08-30T11:40:42.657Z,9.719116
2022-08-30T11:41:46.082Z,9.719086
2022-08-30T11:42:44.806Z,9.719100
2022-08-30T11:43:42.616Z,9.719180
2022-08-30T11:44:42.609Z,9.719129
2022-08-30T11:45:42.662Z,9.719139
2022-08-30T11:46:42.579Z,9.719158
2022-08-30T11:47:42.565Z,9.719137